createdAt,value
2018-04-14T00:01:23.631Z,28.10
2018-04-14T00:03:53.404Z,28.10
2018-04-14T00:06:23.186Z,28.20
2018-04-14T00:08:53.761Z,28.40
2018-04-14T00:11:23.625Z,28.40
2018-04-14T00:13:54.362Z,28.60
2018-04-14T00:16:26.242Z,28.60
2018-04-14T00:18:56.007Z,28.60
2018-04-14T00:21:25.851Z,28.70
2018-04-14T00:23:56.451Z,28.70
2018-04-14T00:26:26.272Z,28.70
2018-04-14T00:28:56.099Z,28.80
2018-04-14T00:31:26.722Z,28.80
2018-04-14T00:33:56.548Z,28.70
2018-04-14T00:36:27.287Z,28.70
2018-04-14T00:38:57.159Z,28.70
2018-04-14T00:41:26.943Z,28.70
2018-04-14T00:43:56.745Z,28.80
2018-04-14T00:46:26.561Z,28.80
2018-04-14T00:48:56.340Z,28.80
2018-04-14T00:51:27.343Z,28.70
2018-04-14T00:53:57.394Z,28.70
2018-04-14T00:56:28.996Z,28.80
2018-04-14T00:58:59.000Z,28.80
2018-04-14T01:01:29.636Z,28.80
2018-04-14T01:03:59.506Z,28.80
2018-04-14T01:06:30.167Z,28.80
2018-04-14T01:09:00.052Z,28.80
2018-04-14T01:11:30.735Z,28.80
2018-04-14T01:14:00.546Z,28.80
2018-04-14T01:16:30.396Z,28.80
2018-04-14T01:19:01.091Z,28.80
2018-04-14T01:21:31.795Z,28.90
2018-04-14T01:24:01.598Z,28.90
2018-04-14T01:26:32.200Z,29.00
2018-04-14T01:29:02.037Z,29.00
2018-04-14T01:31:32.604Z,29.10
2018-04-14T01:34:02.434Z,29.10
2018-04-14T01:36:32.702Z,29.20
2018-04-14T01:39:03.293Z,29.50
2018-04-14T01:41:33.349Z,29.40
2018-04-14T01:44:03.883Z,29.70
2018-04-14T01:46:34.434Z,29.80
2018-04-14T01:49:04.223Z,29.80
2018-04-14T01:51:34.761Z,30.00
2018-04-14T01:54:05.176Z,30.00
2018-04-14T01:56:35.896Z,30.10
2018-04-14T01:59:05.720Z,30.10
2018-04-14T02:01:36.232Z,30.20
2018-04-14T02:04:06.039Z,30.30
2018-04-14T02:06:35.860Z,30.30
2018-04-14T02:09:06.028Z,30.40
2018-04-14T02:11:36.040Z,30.40
2018-04-14T02:14:05.856Z,30.50
2018-04-14T02:16:35.673Z,30.50
2018-04-14T02:19:05.525Z,30.50
2018-04-14T02:21:35.439Z,30.60
2018-04-14T02:24:05.251Z,30.60
2018-04-14T02:26:35.110Z,30.60
2018-04-14T02:29:04.907Z,30.00
2018-04-14T02:31:35.657Z,30.70
2018-04-14T02:34:06.032Z,30.70
2018-04-14T02:36:35.820Z,30.80
2018-04-14T02:39:06.015Z,30.80
2018-04-14T02:41:36.349Z,30.90
2018-04-14T02:44:06.283Z,30.90
2018-04-14T02:46:36.048Z,30.90
2018-04-14T02:49:06.675Z,31.00
2018-04-14T02:51:37.243Z,31.00
2018-04-14T02:54:07.007Z,31.00
2018-04-14T02:56:37.595Z,31.00
2018-04-14T02:59:07.994Z,31.00
2018-04-14T03:01:38.931Z,31.00
2018-04-14T03:04:09.155Z,31.10
2018-04-14T03:06:39.089Z,31.10
2018-04-14T03:09:08.971Z,31.20
2018-04-14T03:11:38.765Z,31.30
2018-04-14T03:14:09.876Z,31.40
2018-04-14T03:16:39.636Z,31.30
2018-04-14T03:19:10.240Z,31.50
2018-04-14T03:21:40.789Z,31.50
2018-04-14T03:24:11.338Z,31.60
2018-04-14T03:26:41.368Z,31.60
2018-04-14T03:29:11.136Z,31.70
2018-04-14T03:31:41.939Z,31.80
2018-04-14T03:34:11.693Z,31.80
2018-04-14T03:36:42.321Z,32.00
2018-04-14T03:39:14.072Z,32.10
2018-04-14T03:41:44.706Z,32.20
2018-04-14T03:44:15.258Z,32.20
2018-04-14T03:46:45.063Z,32.20
2018-04-14T03:49:14.986Z,32.30
2018-04-14T03:51:44.827Z,32.40
2018-04-14T03:54:14.641Z,32.40
2018-04-14T03:56:44.439Z,32.50
2018-04-14T03:59:14.827Z,32.60
2018-04-14T04:01:45.380Z,32.70
2018-04-14T04:04:16.093Z,32.70
2018-04-14T04:06:47.626Z,32.80
2018-04-14T04:09:17.466Z,32.80
2018-04-14T04:11:47.341Z,32.80
2018-04-14T04:14:17.125Z,32.80
2018-04-14T04:16:47.913Z,32.80
2018-04-14T04:19:29.419Z,32.80
2018-04-14T04:22:10.212Z,32.80
2018-04-14T04:24:51.146Z,32.80
2018-04-14T04:27:22.533Z,32.80
2018-04-14T04:29:53.311Z,32.80
2018-04-14T04:32:23.617Z,32.80
2018-04-14T04:34:54.568Z,32.90
2018-04-14T04:37:24.486Z,32.90
2018-04-14T04:39:54.295Z,32.90
2018-04-14T04:42:24.331Z,33.00
2018-04-14T04:44:54.594Z,33.00
2018-04-14T04:47:24.732Z,33.00
2018-04-14T04:49:54.959Z,33.10
2018-04-14T04:52:25.095Z,33.20
2018-04-14T04:54:55.345Z,33.20
2018-04-14T04:57:25.607Z,33.30
2018-04-14T04:59:55.772Z,33.30
2018-04-14T05:02:27.869Z,33.40
2018-04-14T05:04:57.678Z,33.30
2018-04-14T05:07:27.499Z,33.40
2018-04-14T05:09:58.052Z,33.40
2018-04-14T05:12:29.487Z,33.40
2018-04-14T05:14:59.283Z,33.50
2018-04-14T05:17:29.146Z,33.40
2018-04-14T05:19:58.928Z,33.40
2018-04-14T05:22:28.867Z,33.30
2018-04-14T05:24:58.770Z,33.20
2018-04-14T05:27:28.796Z,33.10
2018-04-14T05:29:58.948Z,33.10
2018-04-14T05:32:29.521Z,33.10
2018-04-14T05:34:59.419Z,33.10
2018-04-14T05:37:30.138Z,33.10
2018-04-14T05:39:59.972Z,33.00
2018-04-14T05:42:31.785Z,33.10
2018-04-14T05:45:01.612Z,33.10
2018-04-14T05:47:37.760Z,33.10
2018-04-14T05:50:08.423Z,33.10
2018-04-14T05:52:39.374Z,33.10
2018-04-14T05:55:10.102Z,33.10
2018-04-14T05:57:44.618Z,33.10
2018-04-14T06:00:17.601Z,33.20
2018-04-14T06:02:47.644Z,33.20
2018-04-14T06:05:17.645Z,33.20
2018-04-14T06:07:48.058Z,33.20
2018-04-14T06:10:18.384Z,33.20
2018-04-14T06:12:48.215Z,33.20
2018-04-14T06:15:18.102Z,33.20
2018-04-14T06:17:49.610Z,33.20
2018-04-14T06:20:20.471Z,33.20
2018-04-14T06:22:50.472Z,33.20
2018-04-14T06:25:20.516Z,33.20
2018-04-14T06:27:51.546Z,33.10
2018-04-14T06:30:21.311Z,33.10
2018-04-14T06:32:51.187Z,33.00
2018-04-14T06:35:21.815Z,33.00
2018-04-14T06:37:52.372Z,33.10
2018-04-14T06:40:22.181Z,33.10
2018-04-14T06:42:52.369Z,33.20
2018-04-14T06:45:23.005Z,33.40
2018-04-14T06:47:53.537Z,33.40
2018-04-14T06:50:25.088Z,33.40
2018-04-14T06:52:55.287Z,33.40
2018-04-14T06:55:26.416Z,33.40
2018-04-14T06:57:56.218Z,33.40
2018-04-14T07:00:26.051Z,33.40
2018-04-14T07:02:56.135Z,33.30
2018-04-14T07:05:26.434Z,33.10
2018-04-14T07:07:57.103Z,32.90
2018-04-14T07:10:26.915Z,32.80
2018-04-14T07:12:58.581Z,32.30
2018-04-14T07:15:28.398Z,32.20
2018-04-14T07:17:58.231Z,32.00
2018-04-14T07:20:28.087Z,31.80
2018-04-14T07:22:58.676Z,31.30
2018-04-14T07:25:28.475Z,31.30
2018-04-14T07:27:59.161Z,31.00
2018-04-14T07:30:28.972Z,31.00
2018-04-14T07:32:59.632Z,30.80
2018-04-14T07:35:29.476Z,30.80
2018-04-14T07:37:59.246Z,30.70
2018-04-14T07:40:29.498Z,30.60
2018-04-14T07:43:00.819Z,30.50
2018-04-14T07:45:30.598Z,30.50
2018-04-14T07:48:00.438Z,30.40
2018-04-14T07:50:30.284Z,30.40
2018-04-14T07:53:00.595Z,30.30
2018-04-14T07:55:30.818Z,30.20
2018-04-14T07:58:02.726Z,30.20
2018-04-14T08:00:32.583Z,30.20
2018-04-14T08:03:02.570Z,30.10
2018-04-14T08:05:32.406Z,30.10
2018-04-14T08:08:02.271Z,30.00
2018-04-14T08:10:33.718Z,29.70
2018-04-14T08:13:04.925Z,29.50
2018-04-14T08:15:34.738Z,29.50
2018-04-14T08:18:04.540Z,29.30
2018-04-14T08:20:34.469Z,29.30
2018-04-14T08:23:04.238Z,29.30
2018-04-14T08:25:34.651Z,29.20
2018-04-14T08:28:04.478Z,29.10
2018-04-14T08:30:34.305Z,29.10
2018-04-14T08:33:04.094Z,29.10
2018-04-14T08:35:34.921Z,29.00
2018-04-14T08:38:05.560Z,29.00
2018-04-14T08:40:35.965Z,29.00
2018-04-14T08:43:07.771Z,29.00
2018-04-14T08:45:37.590Z,29.00
2018-04-14T08:48:08.823Z,29.00
2018-04-14T08:50:53.359Z,29.00
2018-04-14T08:53:23.207Z,29.00
2018-04-14T08:55:53.036Z,29.00
2018-04-14T08:58:22.786Z,29.10
2018-04-14T09:00:53.402Z,29.20
2018-04-14T09:03:23.998Z,29.20
2018-04-14T09:05:53.846Z,29.20
2018-04-14T09:08:24.408Z,29.10
2018-04-14T09:10:55.424Z,29.10
2018-04-14T09:13:26.017Z,29.00
2018-04-14T09:15:55.938Z,29.00
2018-04-14T09:18:25.766Z,28.90
2018-04-14T09:20:55.589Z,28.90
2018-04-14T09:23:26.172Z,29.00
2018-04-14T09:25:56.002Z,29.00
2018-04-14T09:28:26.234Z,29.10
2018-04-14T09:30:56.078Z,29.00
2018-04-14T09:33:25.864Z,29.00
2018-04-14T09:35:55.679Z,29.00
2018-04-14T09:38:25.435Z,29.00
2018-04-14T09:40:55.259Z,29.00
2018-04-14T09:43:25.083Z,29.10
2018-04-14T09:45:54.992Z,29.10
2018-04-14T09:48:25.068Z,29.10
2018-04-14T09:50:56.203Z,29.00
2018-04-14T09:53:26.764Z,29.10
2018-04-14T09:58:32.099Z,29.00
2018-04-14T10:01:02.854Z,28.90
2018-04-14T10:03:32.663Z,28.90
2018-04-14T15:14:19.536Z,27.20
2018-04-14T15:16:49.322Z,27.20
2018-04-14T15:19:19.121Z,27.20
2018-04-14T15:21:48.932Z,27.20
2018-04-14T15:24:18.784Z,27.30
2018-04-14T15:26:48.576Z,27.30
2018-04-14T15:29:18.438Z,27.30
2018-04-14T15:31:48.226Z,27.30
2018-04-14T15:34:18.029Z,27.20
2018-04-14T15:36:48.670Z,27.30
2018-04-14T15:39:18.460Z,27.30
2018-04-14T15:41:48.240Z,27.30
2018-04-14T15:44:19.857Z,27.40
2018-04-14T15:46:50.762Z,27.40
2018-04-14T15:49:20.623Z,27.30
2018-04-14T15:51:51.441Z,27.20
2018-04-14T15:54:22.063Z,27.30
2018-04-14T15:56:51.908Z,27.20
2018-04-14T15:59:22.468Z,27.30
2018-04-14T16:01:52.557Z,27.20
2018-04-14T16:04:23.231Z,27.20
2018-04-14T16:06:53.025Z,27.20
2018-04-14T16:09:22.853Z,27.20
2018-04-14T16:11:53.475Z,25.70
2018-04-14T16:14:23.335Z,27.20
2018-04-14T16:16:53.072Z,27.20
2018-04-14T16:19:23.902Z,27.10
2018-04-14T16:21:54.716Z,27.10
2018-04-14T16:24:24.520Z,27.10
2018-04-14T16:26:54.301Z,26.80
2018-04-14T16:29:24.877Z,27.00
2018-04-14T16:31:54.700Z,26.90
2018-04-14T16:34:25.283Z,26.90
2018-04-14T16:36:55.187Z,26.90
2018-04-14T16:39:26.184Z,26.90
2018-04-14T16:41:56.009Z,27.00
2018-04-14T16:44:27.977Z,26.90
2018-04-14T16:46:57.862Z,26.90
2018-04-14T16:49:27.714Z,26.90
2018-04-14T16:51:57.565Z,26.90
2018-04-14T16:54:27.375Z,26.90
2018-04-14T16:56:57.165Z,26.90
2018-04-14T16:59:27.315Z,26.90
2018-04-14T17:01:57.806Z,26.90
2018-04-14T17:04:27.564Z,26.90
2018-04-14T17:06:57.639Z,26.90
2018-04-14T17:09:27.691Z,26.90
2018-04-14T17:11:57.974Z,26.90
2018-04-14T17:14:28.606Z,26.90
2018-04-14T17:16:58.395Z,26.90
2018-04-14T17:19:28.956Z,26.90
2018-04-14T17:21:58.735Z,26.90
2018-04-14T17:24:29.304Z,26.80
2018-04-14T17:26:59.084Z,26.80
2018-04-14T17:29:28.868Z,26.80
2018-04-14T17:31:58.711Z,26.70
2018-04-14T17:34:28.496Z,26.70
2018-04-14T17:36:58.456Z,26.70
2018-04-14T17:39:28.244Z,26.70
2018-04-14T17:41:58.816Z,26.70
2018-04-14T17:44:28.601Z,26.70
2018-04-14T17:46:58.401Z,26.70
2018-04-14T17:49:28.141Z,26.80
2018-04-14T17:51:58.325Z,26.80
2018-04-14T17:54:28.540Z,26.80
2018-04-14T17:56:59.527Z,26.80
2018-04-14T17:59:29.339Z,26.80
2018-04-14T18:01:59.343Z,26.80
2018-04-14T18:04:30.066Z,26.80
2018-04-14T18:06:59.953Z,26.70
2018-04-14T18:09:31.286Z,26.80
2018-04-14T18:12:01.056Z,26.80
2018-04-14T18:14:30.833Z,26.80
2018-04-14T18:17:01.460Z,26.80
2018-04-14T18:19:32.095Z,26.80
2018-04-14T18:22:02.855Z,26.70
2018-04-14T18:24:32.656Z,26.70
2018-04-14T18:27:02.440Z,26.70
2018-04-14T18:29:33.051Z,26.60
2018-04-14T18:32:02.866Z,26.60
2018-04-14T18:34:33.342Z,26.60
2018-04-14T18:37:03.151Z,26.70
2018-04-14T18:39:33.055Z,26.70
2018-04-14T18:42:02.883Z,26.70
2018-04-14T18:44:32.692Z,26.70
2018-04-14T18:47:03.445Z,26.70
2018-04-14T18:49:33.504Z,26.70
2018-04-14T18:52:03.307Z,26.70
2018-04-14T18:54:33.996Z,26.70
2018-04-14T18:57:03.765Z,26.70
2018-04-14T18:59:33.671Z,26.70
2018-04-14T19:02:04.015Z,26.70
2018-04-14T19:04:34.133Z,26.70
2018-04-14T19:07:05.141Z,26.70
2018-04-14T19:09:35.314Z,26.70
2018-04-14T19:12:05.126Z,26.70
2018-04-14T19:14:34.930Z,26.70
2018-04-14T19:17:05.203Z,26.70
2018-04-14T19:19:36.215Z,26.60
2018-04-14T19:22:06.011Z,26.60
2018-04-14T19:24:36.550Z,26.60
2018-04-14T19:27:07.312Z,26.60
2018-04-14T19:29:37.894Z,26.60
2018-04-14T19:32:07.722Z,26.60
2018-04-14T19:34:37.532Z,26.60
2018-04-14T19:37:07.735Z,26.60
2018-04-14T19:39:38.330Z,26.50
2018-04-14T19:42:08.168Z,26.50
2018-04-14T19:44:38.712Z,26.50
2018-04-14T19:47:09.661Z,26.50
2018-04-14T19:49:39.488Z,26.50
2018-04-14T19:52:09.276Z,26.60
2018-04-14T19:54:39.828Z,26.60
2018-04-14T19:57:09.645Z,26.60
2018-04-14T19:59:39.511Z,26.60
2018-04-14T20:02:10.053Z,26.50
2018-04-14T20:04:40.638Z,26.50
2018-04-14T20:07:10.488Z,26.50
2018-04-14T20:09:41.042Z,26.50
2018-04-14T20:12:11.037Z,26.50
2018-04-14T20:14:41.576Z,26.50
2018-04-14T20:17:11.402Z,26.50
2018-04-14T20:19:41.158Z,26.50
2018-04-14T20:22:11.048Z,26.50
2018-04-14T20:24:41.190Z,26.50
2018-04-14T20:27:12.316Z,26.50
2018-04-14T20:29:42.116Z,26.50
2018-04-14T20:32:11.919Z,26.50
2018-04-14T20:34:42.047Z,26.50
2018-04-14T20:37:13.061Z,26.50
2018-04-14T20:39:42.863Z,26.50
2018-04-14T20:42:13.467Z,26.50
2018-04-14T20:44:43.212Z,26.50
2018-04-14T20:47:13.818Z,26.50
2018-04-14T20:49:43.621Z,26.50
2018-04-14T20:52:14.375Z,26.50
2018-04-14T20:54:44.945Z,26.50
2018-04-14T20:57:14.755Z,26.40
2018-04-14T20:59:44.713Z,26.50
2018-04-14T21:02:14.590Z,26.50
2018-04-14T21:04:45.451Z,26.50
2018-04-14T21:07:15.372Z,26.40
2018-04-14T21:09:45.154Z,26.40
2018-04-14T21:12:16.276Z,26.40
2018-04-14T21:14:46.115Z,26.40
2018-04-14T21:17:15.901Z,26.40
2018-04-14T21:19:46.034Z,26.40
2018-04-14T21:22:16.350Z,26.50
2018-04-14T21:24:47.150Z,26.40
2018-04-14T21:27:17.738Z,26.50
2018-04-14T21:29:47.539Z,26.40
2018-04-14T21:32:17.355Z,26.50
2018-04-14T21:37:21.803Z,26.50
2018-04-14T21:39:51.709Z,26.50
2018-04-14T21:42:21.499Z,26.50
2018-04-14T21:44:51.280Z,26.50
2018-04-14T21:47:22.271Z,26.50
2018-04-14T21:49:52.038Z,26.50
2018-04-14T21:52:22.610Z,26.40
2018-04-14T21:54:53.163Z,26.40
2018-04-14T21:57:22.947Z,26.40
2018-04-14T21:59:52.825Z,26.40
2018-04-14T22:02:23.371Z,26.40
2018-04-14T22:04:53.305Z,26.40
2018-04-14T22:07:23.097Z,26.40
2018-04-14T22:09:52.921Z,26.30
2018-04-14T22:12:22.716Z,26.30
2018-04-14T22:14:52.543Z,26.30
2018-04-14T22:17:22.329Z,26.30
2018-04-14T22:19:52.868Z,26.30
2018-04-14T22:22:22.705Z,26.30
2018-04-14T22:24:52.508Z,26.30
2018-04-14T22:27:22.285Z,26.30
2018-04-14T22:29:52.817Z,26.20
2018-04-14T22:32:23.446Z,26.20
2018-04-14T22:34:53.963Z,26.30
2018-04-14T22:37:24.517Z,26.30
2018-04-14T22:39:54.329Z,26.20
2018-04-14T22:42:24.123Z,26.30
2018-04-14T22:44:54.699Z,26.30
2018-04-14T22:47:25.539Z,26.30
2018-04-14T22:49:55.326Z,26.30
2018-04-14T22:52:25.146Z,26.20
2018-04-14T22:54:54.917Z,26.20
2018-04-14T22:57:25.415Z,26.20
2018-04-14T22:59:55.202Z,26.20
2018-04-14T23:02:24.975Z,26.20
2018-04-14T23:04:55.093Z,26.10
2018-04-14T23:07:24.987Z,26.10
2018-04-14T23:09:55.884Z,26.10
2018-04-14T23:12:25.671Z,26.10
2018-04-14T23:14:55.494Z,26.10
2018-04-14T23:17:25.653Z,26.10
2018-04-14T23:19:55.984Z,26.10
2018-04-14T23:22:27.371Z,26.20
2018-04-14T23:24:57.887Z,26.20
2018-04-14T23:27:28.622Z,26.20
2018-04-14T23:29:59.160Z,26.30
2018-04-14T23:32:29.705Z,26.20
2018-04-14T23:34:59.443Z,26.20
2018-04-14T23:37:29.243Z,26.20
2018-04-14T23:39:59.146Z,26.20
2018-04-14T23:42:28.925Z,26.30
2018-04-14T23:44:59.492Z,26.30
2018-04-14T23:47:30.274Z,26.30
2018-04-14T23:50:00.048Z,26.40
2018-04-14T23:52:29.866Z,26.50
2018-04-14T23:54:59.671Z,26.50
2018-04-14T23:57:30.531Z,26.60
